createdAt,value
2018-03-01T00:01:41.437Z,-11.39
2018-03-01T00:04:09.164Z,-11.46
2018-03-01T00:06:37.394Z,-11.63
2018-03-01T00:09:05.190Z,-11.68
2018-03-01T00:11:32.955Z,-11.57
2018-03-01T00:14:00.686Z,-11.50
2018-03-01T00:16:28.439Z,-11.56
2018-03-01T00:18:56.111Z,-11.59
2018-03-01T00:21:23.855Z,-11.63
2018-03-01T00:23:51.609Z,-11.64
2018-03-01T00:26:19.395Z,-11.57
2018-03-01T00:28:47.110Z,-11.25
2018-03-01T00:31:14.836Z,-11.27
2018-03-01T00:33:42.538Z,-11.33
2018-03-01T00:36:10.258Z,-11.35
2018-03-01T00:38:38.085Z,-11.46
2018-03-01T00:41:05.751Z,-11.58
2018-03-01T00:43:33.468Z,-11.62
2018-03-01T00:46:01.143Z,-11.61
2018-03-01T00:48:28.878Z,-11.57
2018-03-01T00:50:56.582Z,-11.77
2018-03-01T00:53:24.338Z,-11.88
2018-03-01T00:55:52.006Z,-11.85
2018-03-01T00:58:19.707Z,-11.92
2018-03-01T01:00:47.439Z,-11.93
2018-03-01T01:03:15.112Z,-12.08
2018-03-01T01:05:42.864Z,-12.09
2018-03-01T01:08:10.549Z,-12.02
2018-03-01T01:10:38.272Z,-11.88
2018-03-01T01:13:05.964Z,-11.72
2018-03-01T01:15:33.714Z,-11.57
2018-03-01T01:18:01.486Z,-11.51
2018-03-01T01:20:29.242Z,-11.43
2018-03-01T01:22:56.997Z,-11.41
2018-03-01T01:25:24.671Z,-11.46
2018-03-01T01:27:52.394Z,-11.34
2018-03-01T01:30:20.091Z,-11.42
2018-03-01T01:32:47.832Z,-11.55
2018-03-01T01:35:15.524Z,-11.57
2018-03-01T01:37:43.275Z,-11.51
2018-03-01T01:40:10.963Z,-11.57
2018-03-01T01:42:38.705Z,-11.53
2018-03-01T01:45:06.404Z,-11.43
2018-03-01T01:47:34.245Z,-11.50
2018-03-01T01:50:01.950Z,-11.48
2018-03-01T01:52:29.718Z,-11.66
2018-03-01T01:54:57.380Z,-11.94
2018-03-01T01:57:25.049Z,-11.87
2018-03-01T01:59:52.783Z,-11.69
2018-03-01T02:02:20.457Z,-11.72
2018-03-01T02:04:48.192Z,-11.76
2018-03-01T02:07:15.912Z,-11.83
2018-03-01T02:09:43.669Z,-11.88
2018-03-01T02:12:11.430Z,-11.82
2018-03-01T02:14:39.146Z,-11.80
2018-03-01T02:17:06.930Z,-11.73
2018-03-01T02:19:34.640Z,-11.70
2018-03-01T02:22:02.318Z,-11.77
2018-03-01T02:24:30.053Z,-11.90
2018-03-01T02:26:57.749Z,-11.96
2018-03-01T02:29:25.499Z,-12.09
2018-03-01T02:31:53.215Z,-12.15
2018-03-01T02:34:21.094Z,-12.09
2018-03-01T02:36:48.824Z,-12.04
2018-03-01T02:39:16.558Z,-12.03
2018-03-01T02:41:44.234Z,-11.96
2018-03-01T02:44:12.000Z,-11.85
2018-03-01T02:46:39.687Z,-11.75
2018-03-01T02:49:07.462Z,-11.68
2018-03-01T02:51:35.181Z,-11.61
2018-03-01T02:54:02.890Z,-11.63
2018-03-01T02:56:30.625Z,-11.66
2018-03-01T02:58:58.375Z,-11.78
2018-03-01T03:01:26.104Z,-11.72
2018-03-01T03:03:54.141Z,-11.80
2018-03-01T03:06:21.807Z,-11.88
2018-03-01T03:08:49.519Z,-11.88
2018-03-01T03:11:17.208Z,-11.83
2018-03-01T03:13:44.925Z,-11.83
2018-03-01T03:16:12.634Z,-11.82
2018-03-01T03:18:40.342Z,-11.88
2018-03-01T03:21:08.007Z,-11.94
2018-03-01T03:23:35.723Z,-11.88
2018-03-01T03:26:03.446Z,-12.09
2018-03-01T03:28:31.124Z,-11.98
2018-03-01T03:30:58.845Z,-11.98
2018-03-01T03:33:26.574Z,-11.92
2018-03-01T03:35:54.255Z,-11.77
2018-03-01T03:38:21.951Z,-11.63
2018-03-01T03:40:49.678Z,-11.61
2018-03-01T03:43:17.369Z,-11.56
2018-03-01T03:45:45.094Z,-11.63
2018-03-01T03:48:12.783Z,-11.83
2018-03-01T03:50:40.457Z,-11.80
2018-03-01T03:53:08.203Z,-11.77
2018-03-01T03:55:36.039Z,-11.85
2018-03-01T03:58:03.770Z,-11.82
2018-03-01T04:00:31.430Z,-11.84
2018-03-01T04:02:59.166Z,-11.96
2018-03-01T04:05:27.885Z,-11.97
2018-03-01T04:07:55.560Z,-11.91
2018-03-01T04:10:23.273Z,-11.74
2018-03-01T04:12:51.030Z,-11.70
2018-03-01T04:15:18.776Z,-11.80
2018-03-01T04:17:46.559Z,-11.83
2018-03-01T04:20:14.345Z,-11.73
2018-03-01T04:22:42.407Z,-11.52
2018-03-01T04:25:10.125Z,-11.34
2018-03-01T04:27:37.824Z,-11.32
2018-03-01T04:30:05.554Z,-11.29
2018-03-01T04:32:33.467Z,-11.16
2018-03-01T04:35:01.196Z,-11.05
2018-03-01T04:37:29.086Z,-10.93
2018-03-01T04:39:56.776Z,-10.88
2018-03-01T04:42:24.447Z,-10.94
2018-03-01T04:44:52.208Z,-10.88
2018-03-01T04:47:20.016Z,-11.00
2018-03-01T04:49:47.751Z,-11.17
2018-03-01T04:52:15.515Z,-11.10
2018-03-01T04:54:43.199Z,-11.26
2018-03-01T04:57:10.928Z,-11.23
2018-03-01T04:59:38.668Z,-11.09
2018-03-01T05:02:06.418Z,-10.90
2018-03-01T05:04:34.543Z,-10.76
2018-03-01T05:07:02.273Z,-10.80
2018-03-01T05:09:29.967Z,-10.73
2018-03-01T05:11:57.688Z,-10.82
2018-03-01T05:14:25.430Z,-10.83
2018-03-01T05:16:53.168Z,-10.87
2018-03-01T05:19:20.869Z,-10.88
2018-03-01T05:21:48.620Z,-10.79
2018-03-01T05:24:16.307Z,-10.92
2018-03-01T05:26:44.064Z,-10.92
2018-03-01T05:29:11.734Z,-10.94
2018-03-01T05:31:39.501Z,-10.92
2018-03-01T05:34:07.209Z,-11.09
2018-03-01T05:36:34.939Z,-11.11
2018-03-01T05:39:02.685Z,-11.13
2018-03-01T05:41:30.399Z,-11.06
2018-03-01T05:43:58.191Z,-11.05
2018-03-01T05:46:25.908Z,-11.12
2018-03-01T05:48:53.666Z,-11.21
2018-03-01T05:51:21.464Z,-11.06
2018-03-01T05:53:49.273Z,-11.02
2018-03-01T05:56:16.976Z,-10.96
2018-03-01T05:58:44.725Z,-10.95
2018-03-01T06:01:12.480Z,-10.82
2018-03-01T06:03:40.198Z,-10.72
2018-03-01T06:06:07.911Z,-10.67
2018-03-01T06:08:35.598Z,-10.60
2018-03-01T06:11:03.328Z,-10.56
2018-03-01T06:13:31.014Z,-10.39
2018-03-01T06:15:58.798Z,-9.89
2018-03-01T06:18:26.508Z,-9.68
2018-03-01T06:20:54.214Z,-9.02
2018-03-01T06:23:21.930Z,-8.20
2018-03-01T06:25:49.589Z,-7.62
2018-03-01T06:28:17.327Z,-6.66
2018-03-01T06:30:45.033Z,-5.92
2018-03-01T06:33:12.806Z,-6.78
2018-03-01T06:35:40.534Z,-7.81
2018-03-01T06:38:08.268Z,-8.30
2018-03-01T06:40:36.027Z,-8.50
2018-03-01T06:43:03.774Z,-8.67
2018-03-01T06:45:31.528Z,-8.62
2018-03-01T06:47:59.240Z,-8.43
2018-03-01T06:50:26.930Z,-8.49
2018-03-01T06:52:54.681Z,-8.66
2018-03-01T06:55:22.484Z,-8.56
2018-03-01T06:57:50.252Z,-8.35
2018-03-01T07:00:17.941Z,-7.95
2018-03-01T07:02:45.700Z,-8.33
2018-03-01T07:05:13.407Z,-7.78
2018-03-01T07:07:41.196Z,-7.37
2018-03-01T07:10:08.962Z,-6.81
2018-03-01T07:12:36.755Z,-6.69
2018-03-01T07:15:04.513Z,-6.35
2018-03-01T07:17:32.257Z,-6.11
2018-03-01T07:20:00.040Z,-6.09
2018-03-01T07:22:27.757Z,-6.19
2018-03-01T07:24:57.004Z,-6.07
2018-03-01T07:27:25.203Z,-6.27
2018-03-01T07:29:52.887Z,-6.52
2018-03-01T07:32:20.604Z,-6.53
2018-03-01T07:34:48.420Z,-6.26
2018-03-01T07:37:16.152Z,-6.08
2018-03-01T07:39:45.152Z,-5.86
2018-03-01T07:42:12.894Z,-5.72
2018-03-01T07:44:40.599Z,-5.50
2018-03-01T07:47:09.093Z,-5.47
2018-03-01T07:49:36.884Z,-5.42
2018-03-01T07:52:04.672Z,-5.37
2018-03-01T07:54:32.400Z,-5.30
2018-03-01T07:57:00.174Z,-5.42
2018-03-01T07:59:27.878Z,-5.33
2018-03-01T08:01:55.576Z,-5.24
2018-03-01T08:04:23.335Z,-4.98
2018-03-01T08:06:51.064Z,-4.83
2018-03-01T08:09:19.820Z,-4.92
2018-03-01T08:11:47.671Z,-5.47
2018-03-01T08:14:15.392Z,-5.13
2018-03-01T08:16:43.154Z,-4.62
2018-03-01T08:19:10.891Z,-4.25
2018-03-01T08:21:38.593Z,-4.11
2018-03-01T08:24:06.340Z,-4.19
2018-03-01T08:26:34.032Z,-4.42
2018-03-01T08:29:01.795Z,-3.97
2018-03-01T08:31:29.526Z,-3.44
2018-03-01T08:33:57.235Z,-2.98
2018-03-01T08:36:25.006Z,-3.34
2018-03-01T08:38:52.745Z,-3.69
2018-03-01T08:41:20.469Z,-4.52
2018-03-01T08:43:48.210Z,-4.85
2018-03-01T08:46:15.948Z,-4.39
2018-03-01T08:48:43.733Z,-3.88
2018-03-01T08:51:11.587Z,-4.13
2018-03-01T08:53:39.391Z,-4.84
2018-03-01T08:56:07.122Z,-4.16
2018-03-01T08:58:34.947Z,-4.88
2018-03-01T09:01:02.827Z,-4.16
2018-03-01T09:03:30.543Z,-4.12
2018-03-01T09:05:58.303Z,-3.71
2018-03-01T09:08:26.024Z,-3.23
2018-03-01T09:10:53.815Z,-3.04
2018-03-01T09:13:21.527Z,-3.11
2018-03-01T09:15:49.455Z,-3.53
2018-03-01T09:18:17.217Z,-2.94
2018-03-01T09:20:44.952Z,-3.37
2018-03-01T09:23:12.684Z,-2.35
2018-03-01T09:25:40.555Z,-3.30
2018-03-01T09:28:09.236Z,-2.81
2018-03-01T09:30:36.946Z,-2.32
2018-03-01T09:33:04.709Z,-1.82
2018-03-01T09:35:32.465Z,-2.00
2018-03-01T09:38:00.207Z,-1.94
2018-03-01T09:40:27.986Z,-1.35
2018-03-01T09:42:55.772Z,-1.29
2018-03-01T09:45:23.566Z,-0.89
2018-03-01T09:47:51.340Z,-0.90
2018-03-01T09:50:19.021Z,-2.37
2018-03-01T09:52:46.825Z,-0.77
2018-03-01T09:55:14.547Z,-1.58
2018-03-01T09:57:42.250Z,-0.56
2018-03-01T10:00:10.051Z,-0.39
2018-03-01T10:02:37.750Z,-1.90
2018-03-01T10:05:05.557Z,-1.89
2018-03-01T10:07:33.297Z,-1.03
2018-03-01T10:10:00.997Z,-0.94
2018-03-01T10:12:28.811Z,-0.96
2018-03-01T10:14:57.700Z,-1.01
2018-03-01T10:17:25.468Z,-1.11
2018-03-01T10:19:53.176Z,-0.21
2018-03-01T10:22:20.920Z,0.09
2018-03-01T10:24:48.645Z,-0.27
2018-03-01T10:27:17.440Z,-0.60
2018-03-01T10:29:47.997Z,-0.96
2018-03-01T10:32:15.724Z,-0.19
2018-03-01T10:34:43.564Z,-0.30
2018-03-01T10:37:11.328Z,0.12
2018-03-01T10:39:39.064Z,0.26
2018-03-01T10:42:06.791Z,0.23
2018-03-01T10:44:34.620Z,-0.45
2018-03-01T10:47:02.403Z,0.14
2018-03-01T10:49:31.286Z,-1.19
2018-03-01T10:51:59.058Z,-1.27
2018-03-01T10:54:26.928Z,-0.91
2018-03-01T10:56:54.781Z,-0.74
2018-03-01T10:59:22.626Z,-1.35
2018-03-01T11:01:52.524Z,-0.64
2018-03-01T11:04:21.451Z,-0.98
2018-03-01T11:06:50.624Z,-0.51
2018-03-01T11:09:18.550Z,0.14
2018-03-01T11:11:47.114Z,0.22
2018-03-01T11:14:15.074Z,-0.01
2018-03-01T11:16:43.811Z,-0.24
2018-03-01T11:19:11.599Z,-0.83
2018-03-01T11:21:41.007Z,-0.47
2018-03-01T11:24:09.204Z,-0.35
2018-03-01T11:26:37.243Z,-0.20
2018-03-01T11:29:06.855Z,0.06
2018-03-01T11:31:34.954Z,0.00
2018-03-01T11:34:02.887Z,0.03
2018-03-01T11:36:31.062Z,0.06
2018-03-01T11:39:00.264Z,0.16
2018-03-01T11:41:28.370Z,0.04
2018-03-01T11:43:56.652Z,0.12
2018-03-01T11:46:24.802Z,-0.05
2018-03-01T11:48:52.693Z,0.16
2018-03-01T11:51:20.855Z,-0.03
2018-03-01T11:53:50.160Z,-0.02
2018-03-01T11:56:18.092Z,-0.09
2018-03-01T11:58:45.961Z,-0.15
2018-03-01T12:01:14.149Z,-0.20
2018-03-01T12:03:41.936Z,-0.19
2018-03-01T12:06:09.932Z,-0.35
2018-03-01T12:08:37.828Z,-0.46
2018-03-01T12:11:06.042Z,-0.34
2018-03-01T12:13:34.081Z,-0.28
2018-03-01T12:16:01.959Z,-0.16
2018-03-01T12:18:29.959Z,-0.12
2018-03-01T12:20:57.862Z,-0.07
2018-03-01T12:23:26.052Z,-0.08
2018-03-01T12:25:53.845Z,0.14
2018-03-01T12:28:22.062Z,0.20
2018-03-01T12:30:50.166Z,0.26
2018-03-01T12:33:18.168Z,0.27
2018-03-01T12:35:46.182Z,0.22
2018-03-01T12:38:14.235Z,0.12
2018-03-01T12:40:42.172Z,0.28
2018-03-01T12:43:10.167Z,0.23
2018-03-01T12:45:38.750Z,0.29
2018-03-01T12:48:06.686Z,0.26
2018-03-01T12:50:39.360Z,0.13
2018-03-01T12:53:07.953Z,0.03
2018-03-01T12:55:35.824Z,0.19
2018-03-01T12:58:04.436Z,0.16
2018-03-01T13:00:35.527Z,0.23
2018-03-01T13:03:03.577Z,0.20
2018-03-01T13:05:33.362Z,0.25
2018-03-01T13:08:01.228Z,0.20
2018-03-01T13:10:29.922Z,0.20
2018-03-01T13:12:57.943Z,-0.05
2018-03-01T13:15:26.058Z,0.15
2018-03-01T13:17:54.099Z,0.11
2018-03-01T13:20:22.005Z,0.31
2018-03-01T13:22:49.933Z,0.24
2018-03-01T13:25:17.731Z,-0.01
2018-03-01T13:27:45.802Z,-0.13
2018-03-01T13:30:16.671Z,-0.13
2018-03-01T13:32:45.133Z,-0.32
2018-03-01T13:35:16.768Z,0.17
2018-03-01T13:37:44.644Z,-0.07
2018-03-01T13:40:12.577Z,0.07
2018-03-01T13:42:43.965Z,0.07
2018-03-01T13:45:12.758Z,-0.02
2018-03-01T13:47:41.338Z,0.15
2018-03-01T13:50:09.405Z,0.33
2018-03-01T13:52:37.502Z,0.14
2018-03-01T13:55:05.622Z,-0.24
2018-03-01T13:57:33.494Z,0.17
2018-03-01T14:00:01.387Z,0.55
2018-03-01T14:02:38.193Z,0.51
2018-03-01T14:05:06.242Z,0.86
2018-03-01T14:07:36.012Z,0.39
2018-03-01T14:10:03.811Z,0.36
2018-03-01T14:12:34.596Z,0.16
2018-03-01T14:15:03.028Z,0.35
2018-03-01T14:17:47.896Z,0.47
2018-03-01T14:20:21.498Z,0.61
2018-03-01T14:23:04.234Z,0.18
2018-03-01T14:25:35.974Z,0.18
2018-03-01T14:28:13.784Z,0.04
2018-03-01T14:30:41.523Z,-0.13
2018-03-01T14:33:09.525Z,0.06
2018-03-01T14:35:37.370Z,-0.18
2018-03-01T14:38:05.236Z,-0.18
2018-03-01T14:40:33.375Z,-0.05
2018-03-01T14:43:01.196Z,-0.15
2018-03-01T14:45:29.362Z,-0.09
2018-03-01T14:47:57.403Z,0.03
2018-03-01T14:50:25.111Z,-0.14
2018-03-01T14:52:52.902Z,-0.07
2018-03-01T14:55:20.719Z,0.21
2018-03-01T14:57:48.521Z,0.63
2018-03-01T15:00:16.307Z,0.54
2018-03-01T15:02:44.015Z,0.12
2018-03-01T15:05:11.809Z,0.13
2018-03-01T15:07:39.559Z,0.39
2018-03-01T15:10:07.247Z,0.42
2018-03-01T15:12:34.997Z,0.51
2018-03-01T15:15:02.773Z,0.76
2018-03-01T15:17:30.544Z,0.56
2018-03-01T15:19:58.272Z,0.44
2018-03-01T15:22:26.067Z,0.24
2018-03-01T15:24:53.811Z,0.46
2018-03-01T15:27:21.544Z,0.46
2018-03-01T15:29:49.228Z,0.22
2018-03-01T15:32:17.047Z,0.27
2018-03-01T15:34:44.768Z,-0.06
2018-03-01T15:37:12.482Z,-0.18
2018-03-01T15:39:40.241Z,-0.43
2018-03-01T15:42:08.050Z,-0.32
2018-03-01T15:44:35.822Z,-0.74
2018-03-01T15:47:03.587Z,-0.76
2018-03-01T15:49:31.696Z,-0.60
2018-03-01T15:51:59.817Z,-0.50
2018-03-01T15:54:27.808Z,-0.52
2018-03-01T15:56:55.860Z,-0.47
2018-03-01T15:59:24.555Z,-0.56
2018-03-01T16:01:52.561Z,-0.64
2018-03-01T16:04:20.658Z,-0.81
2018-03-01T16:06:48.820Z,-0.85
2018-03-01T16:09:16.784Z,-0.87
2018-03-01T16:11:45.121Z,-1.07
2018-03-01T16:14:13.249Z,-1.13
2018-03-01T16:16:41.786Z,-1.12
2018-03-01T16:19:10.006Z,-1.11
2018-03-01T16:21:38.011Z,-1.34
2018-03-01T16:24:07.303Z,-1.42
2018-03-01T16:26:35.205Z,-1.57
2018-03-01T16:29:03.377Z,-1.82
2018-03-01T16:31:31.431Z,-1.86
2018-03-01T16:33:59.827Z,-1.85
2018-03-01T16:36:27.820Z,-2.02
2018-03-01T16:38:57.002Z,-2.07
2018-03-01T16:41:24.955Z,-2.16
2018-03-01T16:43:52.874Z,-2.29
2018-03-01T16:46:21.084Z,-2.28
2018-03-01T16:48:49.268Z,-2.62
2018-03-01T16:51:17.548Z,-2.69
2018-03-01T16:53:45.896Z,-2.68
2018-03-01T16:56:14.356Z,-2.87
2018-03-01T16:58:43.074Z,-2.91
2018-03-01T17:01:11.464Z,-2.78
2018-03-01T17:03:40.354Z,-2.72
2018-03-01T17:06:08.453Z,-2.92
2018-03-01T17:08:36.522Z,-2.94
2018-03-01T17:11:04.583Z,-3.03
2018-03-01T17:13:32.601Z,-3.07
2018-03-01T17:16:00.507Z,-3.03
2018-03-01T17:18:28.579Z,-3.05
2018-03-01T17:20:56.926Z,-3.10
2018-03-01T17:23:25.117Z,-3.07
2018-03-01T17:25:53.205Z,-3.08
2018-03-01T17:28:22.076Z,-3.06
2018-03-01T17:30:50.055Z,-2.97
2018-03-01T17:33:18.853Z,-2.96
2018-03-01T17:35:47.950Z,-3.08
2018-03-01T17:38:16.122Z,-3.26
2018-03-01T17:40:44.159Z,-3.23
2018-03-01T17:43:11.908Z,-3.17
2018-03-01T17:45:40.299Z,-3.08
2018-03-01T17:48:09.742Z,-3.04
2018-03-01T17:50:38.077Z,-3.08
2018-03-01T17:53:07.500Z,-3.10
2018-03-01T17:55:35.425Z,-3.18
2018-03-01T17:58:03.221Z,-3.22
2018-03-01T18:00:31.078Z,-3.23
2018-03-01T18:02:58.930Z,-3.35
2018-03-01T18:05:26.791Z,-3.36
2018-03-01T18:07:54.534Z,-3.40
2018-03-01T18:10:22.406Z,-3.49
2018-03-01T18:12:50.223Z,-3.43
2018-03-01T18:15:18.068Z,-3.42
2018-03-01T18:17:45.864Z,-3.38
2018-03-01T18:20:13.646Z,-3.52
2018-03-01T18:22:41.428Z,-3.61
2018-03-01T18:25:09.229Z,-3.64
2018-03-01T18:27:37.012Z,-3.70
2018-03-01T18:30:04.938Z,-3.54
2018-03-01T18:32:32.738Z,-3.33
2018-03-01T18:35:00.777Z,-3.24
2018-03-01T18:37:29.399Z,-3.39
2018-03-01T18:39:58.152Z,-3.39
2018-03-01T18:42:25.991Z,-3.21
2018-03-01T18:44:53.827Z,-3.21
2018-03-01T18:47:21.664Z,-3.29
2018-03-01T18:49:49.467Z,-3.33
2018-03-01T18:52:17.372Z,-3.15
2018-03-01T18:54:45.374Z,-3.27
2018-03-01T18:57:13.116Z,-3.42
2018-03-01T18:59:40.927Z,-3.46
2018-03-01T19:02:09.752Z,-3.39
2018-03-01T19:04:38.048Z,-3.49
2018-03-01T19:07:05.874Z,-3.61
2018-03-01T19:09:33.687Z,-3.60
2018-03-01T19:12:01.470Z,-3.56
2018-03-01T19:14:29.344Z,-3.62
2018-03-01T19:16:57.142Z,-3.63
2018-03-01T19:19:24.838Z,-3.66
2018-03-01T19:21:52.672Z,-3.71
2018-03-01T19:24:20.475Z,-3.63
2018-03-01T19:26:49.063Z,-3.59
2018-03-01T19:29:17.220Z,-3.49
2018-03-01T19:31:46.088Z,-3.69
2018-03-01T19:34:14.201Z,-3.64
2018-03-01T19:36:41.973Z,-3.69
2018-03-01T19:39:10.016Z,-3.66
2018-03-01T19:41:37.843Z,-3.64
2018-03-01T19:44:05.558Z,-3.58
2018-03-01T19:46:33.453Z,-3.59
2018-03-01T19:49:01.327Z,-3.57
2018-03-01T19:51:29.187Z,-3.56
2018-03-01T19:53:56.944Z,-3.57
2018-03-01T19:56:24.822Z,-3.63
2018-03-01T19:58:52.656Z,-3.70
2018-03-01T20:01:20.467Z,-3.65
2018-03-01T20:03:48.276Z,-3.63
2018-03-01T20:06:16.248Z,-3.60
2018-03-01T20:08:44.086Z,-3.63
2018-03-01T20:11:15.809Z,-3.61
2018-03-01T20:13:43.669Z,-3.70
2018-03-01T20:16:11.573Z,-3.70
2018-03-01T20:18:39.667Z,-3.70
2018-03-01T20:21:08.530Z,-3.67
2018-03-01T20:23:40.544Z,-3.63
2018-03-01T20:26:08.596Z,-3.64
2018-03-01T20:28:36.588Z,-3.46
2018-03-01T20:31:06.021Z,-3.50
2018-03-01T20:33:34.879Z,-3.50
2018-03-01T20:36:02.807Z,-3.56
2018-03-01T20:38:31.003Z,-3.67
2018-03-01T20:40:59.167Z,-3.72
2018-03-01T20:43:27.107Z,-3.62
2018-03-01T20:45:55.900Z,-3.62
2018-03-01T20:48:23.865Z,-3.61
2018-03-01T20:50:51.983Z,-3.62
2018-03-01T20:53:21.145Z,-3.46
2018-03-01T20:55:50.973Z,-3.46
2018-03-01T20:58:19.144Z,-3.60
2018-03-01T21:00:47.062Z,-3.63
2018-03-01T21:03:15.104Z,-3.65
2018-03-01T21:05:44.399Z,-3.81
2018-03-01T21:08:13.549Z,-3.94
2018-03-01T21:10:41.571Z,-4.04
2018-03-01T21:13:09.832Z,-4.23
2018-03-01T21:15:38.466Z,-4.34
2018-03-01T21:18:06.442Z,-4.31
2018-03-01T21:20:34.881Z,-4.36
2018-03-01T21:23:03.124Z,-4.51
2018-03-01T21:25:31.125Z,-4.55
2018-03-01T21:27:59.140Z,-4.62
2018-03-01T21:30:27.176Z,-4.70
2018-03-01T21:32:55.481Z,-4.77
2018-03-01T21:35:24.159Z,-4.72
2018-03-01T21:37:52.201Z,-4.84
2018-03-01T21:40:20.215Z,-4.83
2018-03-01T21:42:48.347Z,-4.93
2018-03-01T21:45:16.401Z,-4.93
2018-03-01T21:47:44.542Z,-5.11
2018-03-01T21:50:12.631Z,-5.16
2018-03-01T21:52:41.761Z,-5.29
2018-03-01T21:55:09.817Z,-5.28
2018-03-01T21:57:39.667Z,-5.36
2018-03-01T22:00:07.699Z,-5.48
2018-03-01T22:02:36.470Z,-5.46
2018-03-01T22:05:05.165Z,-5.45
2018-03-01T22:07:33.076Z,-5.54
2018-03-01T22:10:01.315Z,-5.51
2018-03-01T22:12:29.139Z,-5.55
2018-03-01T22:14:57.150Z,-5.54
2018-03-01T22:17:25.223Z,-5.50
2018-03-01T22:19:53.813Z,-5.60
2018-03-01T22:22:21.753Z,-5.61
2018-03-01T22:24:49.843Z,-5.68
2018-03-01T22:27:17.942Z,-5.68
2018-03-01T22:29:45.872Z,-5.72
2018-03-01T22:32:13.720Z,-5.91
2018-03-01T22:34:41.711Z,-6.07
2018-03-01T22:37:09.605Z,-6.10
2018-03-01T22:39:37.546Z,-6.14
2018-03-01T22:42:08.319Z,-6.16
2018-03-01T22:44:36.326Z,-6.18
2018-03-01T22:47:04.443Z,-6.19
2018-03-01T22:49:32.534Z,-6.31
2018-03-01T22:52:00.380Z,-6.37
2018-03-01T22:54:28.444Z,-6.31
2018-03-01T22:56:56.535Z,-6.56
2018-03-01T22:59:24.481Z,-6.38
2018-03-01T23:01:52.347Z,-6.31
2018-03-01T23:04:20.538Z,-6.38
2018-03-01T23:06:48.525Z,-6.52
2018-03-01T23:09:16.533Z,-6.59
2018-03-01T23:11:44.414Z,-6.62
2018-03-01T23:14:13.627Z,-6.70
2018-03-01T23:16:41.662Z,-6.79
2018-03-01T23:19:09.566Z,-6.97
2018-03-01T23:21:39.836Z,-6.87
2018-03-01T23:24:08.538Z,-6.75
2018-03-01T23:26:36.379Z,-7.09
2018-03-01T23:29:04.507Z,-7.05
2018-03-01T23:31:32.395Z,-7.00
2018-03-01T23:34:00.199Z,-7.10
2018-03-01T23:36:28.457Z,-7.16
2018-03-01T23:38:56.533Z,-6.99
2018-03-01T23:41:24.609Z,-6.95
2018-03-01T23:43:52.438Z,-7.20
2018-03-01T23:46:20.442Z,-7.14
2018-03-01T23:48:48.534Z,-7.09
2018-03-01T23:51:16.487Z,-7.09
2018-03-01T23:53:44.453Z,-7.12
2018-03-01T23:56:12.465Z,-7.21
2018-03-01T23:58:40.308Z,-7.29
